sensor_id;sensor_type;location;lat;lon;timestamp;pressure;altitude;pressure_sealevel;temperature;humidity
77587;BME280;66744;49.716;17.158;2023-07-13T00:00:03;98718.88;;;21.58;65.58
77587;BME280;66744;49.716;17.158;2023-07-13T00:03:12;98714.09;;;21.47;65.20
77587;BME280;66744;49.716;17.158;2023-07-13T00:06:24;98729.13;;;21.39;65.92
77587;BME280;66744;49.716;17.158;2023-07-13T00:09:34;98727.66;;;21.27;67.06
77587;BME280;66744;49.716;17.158;2023-07-13T00:12:36;98715.47;;;21.24;66.41
77587;BME280;66744;49.716;17.158;2023-07-13T00:15:38;98723.38;;;21.20;66.66
77587;BME280;66744;49.716;17.158;2023-07-13T00:18:39;98732.50;;;21.21;65.94
77587;BME280;66744;49.716;17.158;2023-07-13T00:21:43;98738.06;;;21.32;65.50
77587;BME280;66744;49.716;17.158;2023-07-13T00:24:45;98729.66;;;21.37;64.72
77587;BME280;66744;49.716;17.158;2023-07-13T00:27:48;98751.75;;;21.35;64.73
77587;BME280;66744;49.716;17.158;2023-07-13T00:30:52;98746.75;;;21.23;64.76
77587;BME280;66744;49.716;17.158;2023-07-13T00:33:55;98752.06;;;21.21;64.76
77587;BME280;66744;49.716;17.158;2023-07-13T00:37:01;98745.19;;;21.27;65.06
77587;BME280;66744;49.716;17.158;2023-07-13T00:40:03;98742.13;;;21.31;65.88
77587;BME280;66744;49.716;17.158;2023-07-13T00:43:23;98749.22;;;21.37;65.62
77587;BME280;66744;49.716;17.158;2023-07-13T00:46:33;98735.44;;;21.45;65.15
77587;BME280;66744;49.716;17.158;2023-07-13T00:49:40;98726.97;;;21.62;64.63
77587;BME280;66744;49.716;17.158;2023-07-13T00:53:00;98711.97;;;21.65;64.18
77587;BME280;66744;49.716;17.158;2023-07-13T00:56:03;98705.94;;;21.55;65.07
77587;BME280;66744;49.716;17.158;2023-07-13T00:59:06;98713.50;;;21.60;65.04
77587;BME280;66744;49.716;17.158;2023-07-13T01:02:22;98697.53;;;21.55;63.69
77587;BME280;66744;49.716;17.158;2023-07-13T01:05:29;98701.84;;;21.56;64.78
77587;BME280;66744;49.716;17.158;2023-07-13T01:08:39;98683.06;;;21.51;63.96
77587;BME280;66744;49.716;17.158;2023-07-13T01:11:43;98696.31;;;21.45;65.21
77587;BME280;66744;49.716;17.158;2023-07-13T01:14:47;98692.41;;;21.18;65.18
77587;BME280;66744;49.716;17.158;2023-07-13T01:17:48;98710.72;;;21.14;66.03
77587;BME280;66744;49.716;17.158;2023-07-13T01:20:54;98710.22;;;21.04;66.15
77587;BME280;66744;49.716;17.158;2023-07-13T01:23:55;98715.09;;;20.92;66.77
77587;BME280;66744;49.716;17.158;2023-07-13T01:26:57;98701.16;;;20.81;66.38
77587;BME280;66744;49.716;17.158;2023-07-13T01:29:59;98709.00;;;20.88;67.00
77587;BME280;66744;49.716;17.158;2023-07-13T01:33:09;98702.66;;;20.88;67.24
77587;BME280;66744;49.716;17.158;2023-07-13T01:36:11;98705.41;;;20.93;66.24
77587;BME280;66744;49.716;17.158;2023-07-13T01:39:13;98705.72;;;20.84;66.55
77587;BME280;66744;49.716;17.158;2023-07-13T01:42:15;98698.38;;;20.76;66.32
77587;BME280;66744;49.716;17.158;2023-07-13T01:45:17;98699.69;;;20.69;65.99
77587;BME280;66744;49.716;17.158;2023-07-13T01:48:18;98702.69;;;20.77;65.99
77587;BME280;66744;49.716;17.158;2023-07-13T01:51:22;98686.91;;;20.85;67.12
77587;BME280;66744;49.716;17.158;2023-07-13T01:54:24;98681.56;;;20.92;66.18
77587;BME280;66744;49.716;17.158;2023-07-13T01:57:28;98666.59;;;20.90;66.36
77587;BME280;66744;49.716;17.158;2023-07-13T02:00:30;98671.94;;;20.82;66.36
77587;BME280;66744;49.716;17.158;2023-07-13T02:03:32;98669.72;;;20.75;67.15
77587;BME280;66744;49.716;17.158;2023-07-13T02:06:33;98659.03;;;20.74;67.73
77587;BME280;66744;49.716;17.158;2023-07-13T02:09:35;98644.81;;;20.77;67.96
77587;BME280;66744;49.716;17.158;2023-07-13T02:12:37;98650.63;;;20.90;66.79
77587;BME280;66744;49.716;17.158;2023-07-13T02:15:40;98664.03;;;20.92;66.49
77587;BME280;66744;49.716;17.158;2023-07-13T02:18:45;98668.81;;;21.02;66.48
77587;BME280;66744;49.716;17.158;2023-07-13T02:21:46;98657.63;;;21.02;66.17
77587;BME280;66744;49.716;17.158;2023-07-13T02:24:48;98661.00;;;20.95;66.83
77587;BME280;66744;49.716;17.158;2023-07-13T02:27:55;98671.19;;;20.82;66.97
77587;BME280;66744;49.716;17.158;2023-07-13T02:31:06;98665.38;;;20.74;67.42
77587;BME280;66744;49.716;17.158;2023-07-13T02:34:08;98666.69;;;20.62;67.74
77587;BME280;66744;49.716;17.158;2023-07-13T02:37:11;98658.81;;;20.66;67.37
77587;BME280;66744;49.716;17.158;2023-07-13T02:40:13;98666.66;;;20.73;66.57
77587;BME280;66744;49.716;17.158;2023-07-13T02:43:15;98659.03;;;20.74;67.42
77587;BME280;66744;49.716;17.158;2023-07-13T02:46:16;98666.38;;;20.77;67.56
77587;BME280;66744;49.716;17.158;2023-07-13T02:49:20;98666.38;;;20.82;67.85
77587;BME280;66744;49.716;17.158;2023-07-13T02:52:22;98665.31;;;20.91;67.46
77587;BME280;66744;49.716;17.158;2023-07-13T02:55:26;98662.81;;;20.87;66.92
77587;BME280;66744;49.716;17.158;2023-07-13T02:58:58;98660.00;;;20.82;66.71
77587;BME280;66744;49.716;17.158;2023-07-13T03:02:01;98665.13;;;20.78;67.51
77587;BME280;66744;49.716;17.158;2023-07-13T03:05:04;98662.91;;;20.60;68.26
77587;BME280;66744;49.716;17.158;2023-07-13T03:08:10;98669.25;;;20.49;68.97
77587;BME280;66744;49.716;17.158;2023-07-13T03:11:20;98679.66;;;20.43;68.84
77587;BME280;66744;49.716;17.158;2023-07-13T03:14:33;98684.00;;;20.38;68.79
77587;BME280;66744;49.716;17.158;2023-07-13T03:17:39;98700.50;;;20.31;68.26
77587;BME280;66744;49.716;17.158;2023-07-13T03:20:50;98694.63;;;20.23;68.91
77587;BME280;66744;49.716;17.158;2023-07-13T03:23:57;98707.81;;;20.23;69.89
77587;BME280;66744;49.716;17.158;2023-07-13T03:27:06;98713.16;;;20.10;70.84
77587;BME280;66744;49.716;17.158;2023-07-13T03:30:13;98719.75;;;20.18;70.19
77587;BME280;66744;49.716;17.158;2023-07-13T03:33:20;98717.47;;;20.22;69.59
77587;BME280;66744;49.716;17.158;2023-07-13T03:36:28;98728.13;;;20.23;69.99
77587;BME280;66744;49.716;17.158;2023-07-13T03:39:35;98738.53;;;20.28;71.30
77587;BME280;66744;49.716;17.158;2023-07-13T03:42:37;98737.53;;;20.26;71.14
77587;BME280;66744;49.716;17.158;2023-07-13T03:45:39;98742.84;;;20.35;70.62
77587;BME280;66744;49.716;17.158;2023-07-13T03:48:49;98750.47;;;20.45;70.76
77587;BME280;66744;49.716;17.158;2023-07-13T03:51:52;98753.50;;;20.47;69.94
77587;BME280;66744;49.716;17.158;2023-07-13T03:54:57;98751.19;;;20.63;70.14
77587;BME280;66744;49.716;17.158;2023-07-13T03:58:23;98761.84;;;20.75;69.12
77587;BME280;66744;49.716;17.158;2023-07-13T04:01:33;98759.31;;;20.72;69.58
77587;BME280;66744;49.716;17.158;2023-07-13T04:04:40;98752.44;;;20.67;68.97
77587;BME280;66744;49.716;17.158;2023-07-13T04:07:50;98766.88;;;20.82;70.10
77587;BME280;66744;49.716;17.158;2023-07-13T04:10:52;98754.72;;;20.80;69.54
77587;BME280;66744;49.716;17.158;2023-07-13T04:13:54;98747.09;;;20.86;69.66
77587;BME280;66744;49.716;17.158;2023-07-13T04:16:55;98737.72;;;20.78;69.18
77587;BME280;66744;49.716;17.158;2023-07-13T04:19:57;98754.94;;;20.82;68.84
77587;BME280;66744;49.716;17.158;2023-07-13T04:22:58;98747.38;;;20.71;69.22
77587;BME280;66744;49.716;17.158;2023-07-13T04:26:00;98760.56;;;20.76;69.37
77587;BME280;66744;49.716;17.158;2023-07-13T04:29:01;98758.00;;;20.73;69.52
77587;BME280;66744;49.716;17.158;2023-07-13T04:32:05;98754.22;;;20.81;69.33
77587;BME280;66744;49.716;17.158;2023-07-13T04:35:09;98758.50;;;20.88;69.57
77587;BME280;66744;49.716;17.158;2023-07-13T04:38:11;98751.91;;;20.85;69.24
77587;BME280;66744;49.716;17.158;2023-07-13T04:41:15;98760.81;;;20.84;69.27
77587;BME280;66744;49.716;17.158;2023-07-13T04:44:28;98764.88;;;20.83;70.01
77587;BME280;66744;49.716;17.158;2023-07-13T04:47:30;98780.84;;;20.88;69.79
77587;BME280;66744;49.716;17.158;2023-07-13T04:50:32;98778.31;;;20.84;70.32
77587;BME280;66744;49.716;17.158;2023-07-13T04:53:36;98777.78;;;20.91;69.89
77587;BME280;66744;49.716;17.158;2023-07-13T04:56:37;98773.72;;;20.98;69.54
77587;BME280;66744;49.716;17.158;2023-07-13T04:59:39;98774.69;;;21.06;69.69
77587;BME280;66744;49.716;17.158;2023-07-13T05:02:43;98777.78;;;21.14;69.29
77587;BME280;66744;49.716;17.158;2023-07-13T05:05:55;98762.25;;;21.07;69.44
77587;BME280;66744;49.716;17.158;2023-07-13T05:08:59;98767.06;;;21.18;69.83
77587;BME280;66744;49.716;17.158;2023-07-13T05:12:01;98758.44;;;21.16;69.93
77587;BME280;66744;49.716;17.158;2023-07-13T05:15:03;98755.88;;;21.23;68.80
77587;BME280;66744;49.716;17.158;2023-07-13T05:18:08;98752.03;;;21.26;69.21
77587;BME280;66744;49.716;17.158;2023-07-13T05:21:10;98753.31;;;21.31;69.85
77587;BME280;66744;49.716;17.158;2023-07-13T05:24:12;98749.53;;;21.23;69.71
77587;BME280;66744;49.716;17.158;2023-07-13T05:27:13;98732.53;;;21.15;69.37
77587;BME280;66744;49.716;17.158;2023-07-13T05:30:18;98740.63;;;21.24;69.55
77587;BME280;66744;49.716;17.158;2023-07-13T05:33:20;98732.78;;;21.23;69.62
77587;BME280;66744;49.716;17.158;2023-07-13T05:36:21;98742.66;;;21.24;68.62
77587;BME280;66744;49.716;17.158;2023-07-13T05:39:23;98752.81;;;21.27;69.01
77587;BME280;66744;49.716;17.158;2023-07-13T05:42:24;98762.19;;;21.35;68.67
77587;BME280;66744;49.716;17.158;2023-07-13T05:45:28;98757.91;;;21.28;69.01
77587;BME280;66744;49.716;17.158;2023-07-13T05:48:30;98773.59;;;21.37;68.74
77587;BME280;66744;49.716;17.158;2023-07-13T05:51:31;98771.31;;;21.35;68.72
77587;BME280;66744;49.716;17.158;2023-07-13T05:54:35;98770.56;;;21.40;69.10
77587;BME280;66744;49.716;17.158;2023-07-13T05:57:36;98772.56;;;21.40;69.04
77587;BME280;66744;49.716;17.158;2023-07-13T06:00:38;98779.91;;;21.48;68.68
77587;BME280;66744;49.716;17.158;2023-07-13T06:03:40;98777.59;;;21.52;68.50
77587;BME280;66744;49.716;17.158;2023-07-13T06:06:41;98774.78;;;21.58;68.52
77587;BME280;66744;49.716;17.158;2023-07-13T06:09:45;98784.88;;;21.72;67.81
77587;BME280;66744;49.716;17.158;2023-07-13T06:12:47;98779.78;;;21.71;67.52
77587;BME280;66744;49.716;17.158;2023-07-13T06:15:49;98772.88;;;21.77;67.23
77587;BME280;66744;49.716;17.158;2023-07-13T06:18:50;98788.63;;;21.80;67.97
77587;BME280;66744;49.716;17.158;2023-07-13T06:21:52;98770.56;;;21.81;67.09
77587;BME280;66744;49.716;17.158;2023-07-13T06:24:56;98780.50;;;21.88;67.82
77587;BME280;66744;49.716;17.158;2023-07-13T06:28:00;98784.25;;;21.96;67.37
77587;BME280;66744;49.716;17.158;2023-07-13T06:31:02;98778.16;;;21.92;67.84
77587;BME280;66744;49.716;17.158;2023-07-13T06:34:05;98779.19;;;21.94;69.23
77587;BME280;66744;49.716;17.158;2023-07-13T06:37:07;98773.38;;;21.81;68.79
77587;BME280;66744;49.716;17.158;2023-07-13T06:40:09;98779.19;;;21.83;69.56
77587;BME280;66744;49.716;17.158;2023-07-13T06:43:11;98782.00;;;21.89;69.87
77587;BME280;66744;49.716;17.158;2023-07-13T06:46:31;98777.13;;;21.95;69.72
77587;BME280;66744;49.716;17.158;2023-07-13T06:49:52;98783.97;;;21.99;69.21
77587;BME280;66744;49.716;17.158;2023-07-13T06:53:13;98780.41;;;21.99;70.13
77587;BME280;66744;49.716;17.158;2023-07-13T06:56:14;98771.53;;;21.95;68.82
77587;BME280;66744;49.716;17.158;2023-07-13T06:59:19;98780.63;;;22.01;68.99
77587;BME280;66744;49.716;17.158;2023-07-13T07:02:20;98785.16;;;22.09;68.56
77587;BME280;66744;49.716;17.158;2023-07-13T07:05:31;98785.66;;;22.13;68.63
77587;BME280;66744;49.716;17.158;2023-07-13T07:08:52;98788.31;;;22.30;67.96
77587;BME280;66744;49.716;17.158;2023-07-13T07:12:02;98800.00;;;22.34;68.06
77587;BME280;66744;49.716;17.158;2023-07-13T07:15:15;98797.72;;;22.33;68.22
77587;BME280;66744;49.716;17.158;2023-07-13T07:18:36;98795.88;;;22.41;68.58
77587;BME280;66744;49.716;17.158;2023-07-13T07:21:50;98802.19;;;22.47;68.29
77587;BME280;66744;49.716;17.158;2023-07-13T07:24:51;98804.47;;;22.48;67.68
77587;BME280;66744;49.716;17.158;2023-07-13T07:28:03;98799.41;;;22.47;67.21
77587;BME280;66744;49.716;17.158;2023-07-13T07:31:04;98796.31;;;22.50;66.86
77587;BME280;66744;49.716;17.158;2023-07-13T07:34:06;98797.88;;;22.46;66.79
77587;BME280;66744;49.716;17.158;2023-07-13T07:37:12;98800.38;;;22.49;67.06
77587;BME280;66744;49.716;17.158;2023-07-13T07:40:14;98812.75;;;22.65;66.91
77587;BME280;66744;49.716;17.158;2023-07-13T07:43:16;98802.56;;;22.67;67.22
77587;BME280;66744;49.716;17.158;2023-07-13T07:46:17;98809.63;;;22.74;67.07
77587;BME280;66744;49.716;17.158;2023-07-13T07:49:18;98819.25;;;22.79;66.73
77587;BME280;66744;49.716;17.158;2023-07-13T07:52:20;98810.91;;;22.73;66.10
77587;BME280;66744;49.716;17.158;2023-07-13T07:55:25;98826.88;;;22.78;66.63
77587;BME280;66744;49.716;17.158;2023-07-13T07:58:32;98823.09;;;22.76;66.19
77587;BME280;66744;49.716;17.158;2023-07-13T08:01:36;98826.66;;;22.76;65.41
77587;BME280;66744;49.716;17.158;2023-07-13T08:04:40;98829.19;;;22.80;65.07
77587;BME280;66744;49.716;17.158;2023-07-13T08:07:42;98820.50;;;22.83;65.96
77587;BME280;66744;49.716;17.158;2023-07-13T08:10:46;98832.16;;;22.87;65.86
77587;BME280;66744;49.716;17.158;2023-07-13T08:13:47;98824.78;;;22.84;66.08
77587;BME280;66744;49.716;17.158;2023-07-13T08:16:49;98814.91;;;22.78;65.62
77587;BME280;66744;49.716;17.158;2023-07-13T08:19:54;98829.59;;;22.89;65.60
77587;BME280;66744;49.716;17.158;2023-07-13T08:22:56;98826.50;;;22.93;65.31
77587;BME280;66744;49.716;17.158;2023-07-13T08:26:00;98824.03;;;22.84;65.55
77587;BME280;66744;49.716;17.158;2023-07-13T08:29:03;98832.09;;;22.93;64.94
77587;BME280;66744;49.716;17.158;2023-07-13T08:32:07;98834.31;;;23.00;65.10
77587;BME280;66744;49.716;17.158;2023-07-13T08:35:11;98836.31;;;23.05;65.02
77587;BME280;66744;49.716;17.158;2023-07-13T08:38:16;98837.50;;;23.15;64.37
77587;BME280;66744;49.716;17.158;2023-07-13T08:41:23;98834.16;;;23.16;64.51
77587;BME280;66744;49.716;17.158;2023-07-13T08:44:40;98848.50;;;23.32;64.14
77587;BME280;66744;49.716;17.158;2023-07-13T08:48:11;98845.25;;;23.28;63.84
77587;BME280;66744;49.716;17.158;2023-07-13T08:51:26;98851.78;;;23.36;64.25
77587;BME280;66744;49.716;17.158;2023-07-13T08:54:45;98862.91;;;23.47;63.57
77587;BME280;66744;49.716;17.158;2023-07-13T08:58:13;98858.06;;;23.47;63.96
77587;BME280;66744;49.716;17.158;2023-07-13T09:08:16;98865.59;;;23.76;63.69
77587;BME280;66744;49.716;17.158;2023-07-13T09:11:46;98866.50;;;23.85;62.92
77587;BME280;66744;49.716;17.158;2023-07-13T09:14:56;98867.28;;;23.85;62.80
77587;BME280;66744;49.716;17.158;2023-07-13T09:18:32;98877.50;;;23.83;65.14
77587;BME280;66744;49.716;17.158;2023-07-13T09:21:44;98867.56;;;23.82;66.02
77587;BME280;66744;49.716;17.158;2023-07-13T09:24:53;98862.09;;;23.70;67.93
77587;BME280;66744;49.716;17.158;2023-07-13T09:31:24;98861.56;;;23.53;69.41
77587;BME280;66744;49.716;17.158;2023-07-13T09:34:30;98871.72;;;23.56;69.83
77587;BME280;66744;49.716;17.158;2023-07-13T09:37:33;98875.41;;;23.46;70.77
77587;BME280;66744;49.716;17.158;2023-07-13T09:44:13;98890.34;;;23.30;69.77
77587;BME280;66744;49.716;17.158;2023-07-13T09:47:20;98893.25;;;23.18;68.54
77587;BME280;66744;49.716;17.158;2023-07-13T09:50:24;98893.25;;;23.18;68.42
77587;BME280;66744;49.716;17.158;2023-07-13T09:53:30;98899.31;;;23.22;66.81
77587;BME280;66744;49.716;17.158;2023-07-13T09:56:32;98906.94;;;23.28;68.00
77587;BME280;66744;49.716;17.158;2023-07-13T09:59:43;98896.78;;;23.24;66.79
77587;BME280;66744;49.716;17.158;2023-07-13T10:02:58;98895.88;;;23.11;67.02
77587;BME280;66744;49.716;17.158;2023-07-13T10:06:14;98906.78;;;23.14;67.66
77587;BME280;66744;49.716;17.158;2023-07-13T10:09:17;98895.53;;;23.20;65.98
77587;BME280;66744;49.716;17.158;2023-07-13T10:12:22;98902.88;;;23.23;66.43
77587;BME280;66744;49.716;17.158;2023-07-13T10:15:31;98907.16;;;23.30;65.18
77587;BME280;66744;49.716;17.158;2023-07-13T10:18:43;98908.91;;;23.33;64.55
77587;BME280;66744;49.716;17.158;2023-07-13T10:22:00;98924.16;;;23.37;63.89
77587;BME280;66744;49.716;17.158;2023-07-13T10:25:25;98924.44;;;23.39;62.53
77587;BME280;66744;49.716;17.158;2023-07-13T10:28:37;98920.06;;;23.38;62.41
77587;BME280;66744;49.716;17.158;2023-07-13T10:31:44;98923.13;;;23.40;62.16
77587;BME280;66744;49.716;17.158;2023-07-13T10:34:47;98928.16;;;23.47;62.49
77587;BME280;66744;49.716;17.158;2023-07-13T10:38:10;98927.81;;;23.56;62.02
77587;BME280;66744;49.716;17.158;2023-07-13T10:41:24;98934.88;;;23.63;62.00
77587;BME280;66744;49.716;17.158;2023-07-13T10:44:32;98924.66;;;23.65;61.97
77587;BME280;66744;49.716;17.158;2023-07-13T10:47:33;98951.31;;;23.77;61.74
77587;BME280;66744;49.716;17.158;2023-07-13T10:50:40;98952.34;;;23.74;61.02
77587;BME280;66744;49.716;17.158;2023-07-13T10:54:26;98926.50;;;23.82;61.29
77587;BME280;66744;49.716;17.158;2023-07-13T10:57:27;98939.81;;;24.00;60.14
77587;BME280;66744;49.716;17.158;2023-07-13T11:00:31;98923.34;;;24.09;61.83
77587;BME280;66744;49.716;17.158;2023-07-13T11:03:50;98929.81;;;24.04;61.81
77587;BME280;66744;49.716;17.158;2023-07-13T11:06:57;98939.94;;;24.13;62.57
77587;BME280;66744;49.716;17.158;2023-07-13T11:10:03;98934.84;;;24.11;62.85
77587;BME280;66744;49.716;17.158;2023-07-13T11:13:38;98924.75;;;24.21;62.46
77587;BME280;66744;49.716;17.158;2023-07-13T11:17:01;98935.84;;;24.32;61.08
77587;BME280;66744;49.716;17.158;2023-07-13T11:20:32;98940.94;;;24.34;60.09
77587;BME280;66744;49.716;17.158;2023-07-13T11:23:43;98937.88;;;24.51;61.44
77587;BME280;66744;49.716;17.158;2023-07-13T11:33:56;98934.59;;;24.84;58.79
77587;BME280;66744;49.716;17.158;2023-07-13T11:36:59;98923.47;;;24.92;59.36
77587;BME280;66744;49.716;17.158;2023-07-13T11:40:04;98915.19;;;24.99;57.63
77587;BME280;66744;49.716;17.158;2023-07-13T11:43:11;98905.13;;;25.04;57.33
77587;BME280;66744;49.716;17.158;2023-07-13T11:46:22;98905.69;;;25.02;56.71
77587;BME280;66744;49.716;17.158;2023-07-13T11:49:31;98910.53;;;25.02;57.92
77587;BME280;66744;49.716;17.158;2023-07-13T11:52:35;98909.09;;;24.95;57.14
77587;BME280;66744;49.716;17.158;2023-07-13T11:55:46;98914.13;;;25.02;56.95
77587;BME280;66744;49.716;17.158;2023-07-13T11:58:50;98905.78;;;25.10;57.83
77587;BME280;66744;49.716;17.158;2023-07-13T12:01:54;98907.97;;;25.17;56.69
77587;BME280;66744;49.716;17.158;2023-07-13T12:04:56;98910.69;;;25.22;55.15
77587;BME280;66744;49.716;17.158;2023-07-13T12:08:10;98917.41;;;25.32;56.22
77587;BME280;66744;49.716;17.158;2023-07-13T12:11:19;98915.13;;;25.31;55.58
77587;BME280;66744;49.716;17.158;2023-07-13T12:14:26;98906.38;;;25.34;54.24
77587;BME280;66744;49.716;17.158;2023-07-13T12:17:29;98910.88;;;25.56;55.32
77587;BME280;66744;49.716;17.158;2023-07-13T12:20:37;98910.97;;;25.64;53.82
77587;BME280;66744;49.716;17.158;2023-07-13T12:23:39;98916.81;;;25.66;50.50
77587;BME280;66744;49.716;17.158;2023-07-13T12:26:40;98913.66;;;25.69;51.49
77587;BME280;66744;49.716;17.158;2023-07-13T12:29:50;98918.53;;;25.82;50.73
77587;BME280;66744;49.716;17.158;2023-07-13T12:33:06;98913.13;;;25.84;48.64
77587;BME280;66744;49.716;17.158;2023-07-13T12:36:12;98903.19;;;25.83;48.98
77587;BME280;66744;49.716;17.158;2023-07-13T12:39:16;98897.38;;;26.02;49.28
77587;BME280;66744;49.716;17.158;2023-07-13T12:42:23;98897.84;;;26.19;48.46
77587;BME280;66744;49.716;17.158;2023-07-13T12:48:53;98900.59;;;26.32;46.71
77587;BME280;66744;49.716;17.158;2023-07-13T12:52:00;98893.41;;;26.44;47.12
77587;BME280;66744;49.716;17.158;2023-07-13T12:55:12;98895.97;;;26.55;46.82
77587;BME280;66744;49.716;17.158;2023-07-13T12:58:31;98883.59;;;26.58;47.38
77587;BME280;66744;49.716;17.158;2023-07-13T13:01:36;98887.53;;;26.76;45.99
77587;BME280;66744;49.716;17.158;2023-07-13T13:04:42;98895.13;;;26.81;46.08
77587;BME280;66744;49.716;17.158;2023-07-13T13:07:47;98878.75;;;26.79;44.63
77587;BME280;66744;49.716;17.158;2023-07-13T13:10:49;98873.94;;;26.87;43.88
77587;BME280;66744;49.716;17.158;2023-07-13T13:13:50;98867.81;;;26.96;44.29
77587;BME280;66744;49.716;17.158;2023-07-13T13:16:55;98861.00;;;27.13;39.78
77587;BME280;66744;49.716;17.158;2023-07-13T13:19:57;98862.97;;;27.25;41.02
77587;BME280;66744;49.716;17.158;2023-07-13T13:23:01;98872.19;;;27.26;41.31
77587;BME280;66744;49.716;17.158;2023-07-13T13:26:10;98866.13;;;27.22;40.56
77587;BME280;66744;49.716;17.158;2023-07-13T13:29:31;98855.47;;;27.28;41.95
77587;BME280;66744;49.716;17.158;2023-07-13T13:32:34;98851.56;;;27.38;41.78
77587;BME280;66744;49.716;17.158;2023-07-13T13:35:36;98858.28;;;27.28;41.45
77587;BME280;66744;49.716;17.158;2023-07-13T13:38:37;98864.47;;;27.26;40.77
77587;BME280;66744;49.716;17.158;2023-07-13T13:41:38;98856.91;;;27.21;40.17
77587;BME280;66744;49.716;17.158;2023-07-13T13:44:43;98839.84;;;27.27;39.92
77587;BME280;66744;49.716;17.158;2023-07-13T13:47:49;98838.56;;;27.35;37.80
77587;BME280;66744;49.716;17.158;2023-07-13T13:50:54;98829.91;;;27.33;36.28
77587;BME280;66744;49.716;17.158;2023-07-13T13:53:56;98822.03;;;27.39;39.89
77587;BME280;66744;49.716;17.158;2023-07-13T13:57:00;98828.97;;;27.31;39.50
77587;BME280;66744;49.716;17.158;2023-07-13T14:00:04;98838.78;;;27.37;36.05
77587;BME280;66744;49.716;17.158;2023-07-13T14:03:20;98830.50;;;27.39;36.87
77587;BME280;66744;49.716;17.158;2023-07-13T14:06:21;98834.63;;;27.38;38.40
77587;BME280;66744;49.716;17.158;2023-07-13T14:09:26;98831.50;;;27.42;37.52
77587;BME280;66744;49.716;17.158;2023-07-13T14:12:28;98831.69;;;27.44;37.85
77587;BME280;66744;49.716;17.158;2023-07-13T14:15:31;98838.50;;;27.48;38.47
77587;BME280;66744;49.716;17.158;2023-07-13T14:18:35;98844.31;;;27.50;37.50
77587;BME280;66744;49.716;17.158;2023-07-13T14:21:36;98847.50;;;27.47;36.62
77587;BME280;66744;49.716;17.158;2023-07-13T14:24:56;98851.78;;;27.40;37.48
77587;BME280;66744;49.716;17.158;2023-07-13T14:28:00;98845.19;;;27.38;36.77
77587;BME280;66744;49.716;17.158;2023-07-13T14:31:07;98836.22;;;27.47;37.81
77587;BME280;66744;49.716;17.158;2023-07-13T14:34:12;98837.19;;;27.49;36.93
77587;BME280;66744;49.716;17.158;2023-07-13T14:37:14;98852.50;;;27.41;36.77
77587;BME280;66744;49.716;17.158;2023-07-13T14:40:21;98839.31;;;27.36;38.10
77587;BME280;66744;49.716;17.158;2023-07-13T14:43:31;98853.28;;;27.13;36.82
77587;BME280;66744;49.716;17.158;2023-07-13T14:46:34;98884.19;;;26.98;37.60
77587;BME280;66744;49.716;17.158;2023-07-13T14:53:03;98915.56;;;26.27;48.76
77587;BME280;66744;49.716;17.158;2023-07-13T14:56:25;98924.25;;;26.03;50.63
77587;BME280;66744;49.716;17.158;2023-07-13T14:59:33;98913.13;;;25.84;50.19
77587;BME280;66744;49.716;17.158;2023-07-13T15:02:48;98910.09;;;25.69;49.89
77587;BME280;66744;49.716;17.158;2023-07-13T15:06:03;98901.13;;;25.70;48.15
77587;BME280;66744;49.716;17.158;2023-07-13T15:09:23;98919.81;;;25.94;47.29
77587;BME280;66744;49.716;17.158;2023-07-13T15:12:27;98915.94;;;25.97;47.56
77587;BME280;66744;49.716;17.158;2023-07-13T15:15:34;98904.66;;;25.97;49.43
77587;BME280;66744;49.716;17.158;2023-07-13T15:18:43;98907.25;;;26.08;48.74
77587;BME280;66744;49.716;17.158;2023-07-13T15:21:44;98910.84;;;26.22;47.54
77587;BME280;66744;49.716;17.158;2023-07-13T15:24:48;98896.06;;;26.29;44.98
77587;BME280;66744;49.716;17.158;2023-07-13T15:27:54;98905.00;;;26.40;43.87
77587;BME280;66744;49.716;17.158;2023-07-13T15:30:56;98898.09;;;26.41;43.12
77587;BME280;66744;49.716;17.158;2023-07-13T15:34:04;98904.22;;;26.53;43.56
77587;BME280;66744;49.716;17.158;2023-07-13T15:37:14;98900.09;;;26.54;41.99
77587;BME280;66744;49.716;17.158;2023-07-13T15:40:17;98916.00;;;26.65;41.50
77587;BME280;66744;49.716;17.158;2023-07-13T15:43:19;98908.81;;;26.64;39.24
77587;BME280;66744;49.716;17.158;2023-07-13T15:46:22;98905.53;;;26.73;39.41
77587;BME280;66744;49.716;17.158;2023-07-13T15:49:27;98926.69;;;26.79;39.84
77587;BME280;66744;49.716;17.158;2023-07-13T15:52:34;98928.09;;;26.73;47.00
77587;BME280;66744;49.716;17.158;2023-07-13T15:55:39;98920.94;;;26.51;48.89
77587;BME280;66744;49.716;17.158;2023-07-13T15:58:43;98911.34;;;26.33;49.77
77587;BME280;66744;49.716;17.158;2023-07-13T16:01:45;98932.16;;;26.30;51.24
77587;BME280;66744;49.716;17.158;2023-07-13T16:04:47;98928.38;;;26.15;51.07
77587;BME280;66744;49.716;17.158;2023-07-13T16:07:52;98941.66;;;26.14;51.59
77587;BME280;66744;49.716;17.158;2023-07-13T16:10:58;98946.25;;;26.04;50.21
77587;BME280;66744;49.716;17.158;2023-07-13T16:14:02;98955.88;;;25.95;49.82
77587;BME280;66744;49.716;17.158;2023-07-13T16:17:16;98959.69;;;25.98;50.77
77587;BME280;66744;49.716;17.158;2023-07-13T16:20:18;98953.81;;;25.96;50.18
77587;BME280;66744;49.716;17.158;2023-07-13T16:23:22;98958.69;;;25.95;50.45
77587;BME280;66744;49.716;17.158;2023-07-13T16:29:26;98965.31;;;25.85;49.81
77587;BME280;66744;49.716;17.158;2023-07-13T16:32:29;98958.16;;;25.84;51.21
77587;BME280;66744;49.716;17.158;2023-07-13T16:35:34;98945.94;;;25.81;50.86
77587;BME280;66744;49.716;17.158;2023-07-13T16:38:38;98940.28;;;25.81;49.64
77587;BME280;66744;49.716;17.158;2023-07-13T16:41:42;98934.47;;;25.79;49.63
77587;BME280;66744;49.716;17.158;2023-07-13T16:44:45;98941.06;;;25.82;50.46